sensor_id;sensor_type;location;lat;lon;timestamp;pressure;altitude;pressure_sealevel;temperature;humidity
84232;BME280;74368;48.022;13.830;2024-01-30T00:00:29;98163.41;;;-2.89;91.14
84232;BME280;74368;48.022;13.830;2024-01-30T00:02:54;98164.47;;;-2.92;91.68
84232;BME280;74368;48.022;13.830;2024-01-30T00:05:19;98166.28;;;-2.92;91.84
84232;BME280;74368;48.022;13.830;2024-01-30T00:07:45;98157.56;;;-3.05;92.16
84232;BME280;74368;48.022;13.830;2024-01-30T00:10:10;98170.44;;;-3.01;91.56
84232;BME280;74368;48.022;13.830;2024-01-30T00:12:35;98158.41;;;-3.05;92.51
84232;BME280;74368;48.022;13.830;2024-01-30T00:15:00;98172.78;;;-3.09;92.48
84232;BME280;74368;48.022;13.830;2024-01-30T00:17:26;98175.91;;;-3.15;92.43
84232;BME280;74368;48.022;13.830;2024-01-30T00:19:51;98177.31;;;-3.22;91.86
84232;BME280;74368;48.022;13.830;2024-01-30T00:22:17;98175.22;;;-3.29;92.03
84232;BME280;74368;48.022;13.830;2024-01-30T00:24:42;98172.28;;;-3.38;91.86
84232;BME280;74368;48.022;13.830;2024-01-30T00:27:08;98171.03;;;-3.45;91.06
84232;BME280;74368;48.022;13.830;2024-01-30T00:29:33;98162.00;;;-3.53;91.08
84232;BME280;74368;48.022;13.830;2024-01-30T00:31:59;98179.94;;;-3.46;90.36
84232;BME280;74368;48.022;13.830;2024-01-30T00:34:25;98160.28;;;-3.54;91.54
84232;BME280;74368;48.022;13.830;2024-01-30T00:36:50;98181.09;;;-3.50;90.26
84232;BME280;74368;48.022;13.830;2024-01-30T00:39:15;98167.28;;;-3.53;90.88
84232;BME280;74368;48.022;13.830;2024-01-30T00:41:41;98160.50;;;-3.57;90.54
84232;BME280;74368;48.022;13.830;2024-01-30T00:44:07;98168.72;;;-3.49;91.39
84232;BME280;74368;48.022;13.830;2024-01-30T00:46:32;98161.09;;;-3.41;91.67
84232;BME280;74368;48.022;13.830;2024-01-30T00:48:57;98166.22;;;-3.27;91.95
84232;BME280;74368;48.022;13.830;2024-01-30T00:51:22;98165.22;;;-3.13;92.34
84232;BME280;74368;48.022;13.830;2024-01-30T00:53:48;98163.06;;;-3.08;92.42
84232;BME280;74368;48.022;13.830;2024-01-30T00:56:13;98169.59;;;-3.01;92.23
84232;BME280;74368;48.022;13.830;2024-01-30T00:58:38;98172.88;;;-2.98;91.75
84232;BME280;74368;48.022;13.830;2024-01-30T01:01:04;98164.09;;;-2.98;90.50
84232;BME280;74368;48.022;13.830;2024-01-30T01:03:29;98158.28;;;-3.03;90.96
84232;BME280;74368;48.022;13.830;2024-01-30T01:05:55;98166.56;;;-3.08;89.97
84232;BME280;74368;48.022;13.830;2024-01-30T01:08:20;98165.13;;;-3.12;90.54
84232;BME280;74368;48.022;13.830;2024-01-30T01:10:45;98165.13;;;-3.12;90.34
84232;BME280;74368;48.022;13.830;2024-01-30T01:13:10;98154.53;;;-3.12;91.23
84232;BME280;74368;48.022;13.830;2024-01-30T01:15:36;98153.78;;;-3.14;90.81
84232;BME280;74368;48.022;13.830;2024-01-30T01:18:02;98163.69;;;-3.05;91.81
84232;BME280;74368;48.022;13.830;2024-01-30T01:20:27;98151.06;;;-3.12;91.80
84232;BME280;74368;48.022;13.830;2024-01-30T01:22:53;98162.00;;;-3.06;91.05
84232;BME280;74368;48.022;13.830;2024-01-30T01:25:18;98167.78;;;-3.01;92.22
84232;BME280;74368;48.022;13.830;2024-01-30T01:27:43;98164.59;;;-2.93;92.02
84232;BME280;74368;48.022;13.830;2024-01-30T01:30:16;98161.50;;;-2.87;91.47
84232;BME280;74368;48.022;13.830;2024-01-30T01:32:46;98153.22;;;-2.83;91.30
84232;BME280;74368;48.022;13.830;2024-01-30T01:35:16;98161.66;;;-2.78;92.40
84232;BME280;74368;48.022;13.830;2024-01-30T01:37:41;98162.97;;;-2.72;92.20
84232;BME280;74368;48.022;13.830;2024-01-30T01:40:07;98146.28;;;-2.73;91.64
84232;BME280;74368;48.022;13.830;2024-01-30T01:42:32;98152.81;;;-2.65;92.27
84232;BME280;74368;48.022;13.830;2024-01-30T01:44:58;98146.69;;;-2.55;92.65
84232;BME280;74368;48.022;13.830;2024-01-30T01:47:23;98154.16;;;-2.49;92.77
84232;BME280;74368;48.022;13.830;2024-01-30T01:49:49;98151.41;;;-2.47;92.04
84232;BME280;74368;48.022;13.830;2024-01-30T01:52:14;98151.41;;;-2.47;91.98
84232;BME280;74368;48.022;13.830;2024-01-30T01:54:40;98146.00;;;-2.46;92.54
84232;BME280;74368;48.022;13.830;2024-01-30T01:57:06;98151.75;;;-2.41;92.46
84232;BME280;74368;48.022;13.830;2024-01-30T01:59:32;98146.38;;;-2.39;93.51
84232;BME280;74368;48.022;13.830;2024-01-30T02:01:57;98140.97;;;-2.38;93.03
84232;BME280;74368;48.022;13.830;2024-01-30T02:04:22;98158.03;;;-2.31;93.28
84232;BME280;74368;48.022;13.830;2024-01-30T02:06:48;98153.72;;;-2.32;92.89
84232;BME280;74368;48.022;13.830;2024-01-30T02:09:13;98137.84;;;-2.32;93.72
84232;BME280;74368;48.022;13.830;2024-01-30T02:11:39;98152.53;;;-2.28;93.72
84232;BME280;74368;48.022;13.830;2024-01-30T02:14:05;98135.31;;;-2.33;93.14
84232;BME280;74368;48.022;13.830;2024-01-30T02:16:31;98150.22;;;-2.32;93.92
84232;BME280;74368;48.022;13.830;2024-01-30T02:18:57;98145.78;;;-2.32;93.67
84232;BME280;74368;48.022;13.830;2024-01-30T02:21:22;98153.59;;;-2.30;93.43
84232;BME280;74368;48.022;13.830;2024-01-30T02:23:48;98150.94;;;-2.30;94.04
84232;BME280;74368;48.022;13.830;2024-01-30T02:26:14;98150.81;;;-2.29;94.22
84232;BME280;74368;48.022;13.830;2024-01-30T02:28:39;98148.66;;;-2.35;93.99
84232;BME280;74368;48.022;13.830;2024-01-30T02:31:05;98159.88;;;-2.31;94.49
84232;BME280;74368;48.022;13.830;2024-01-30T02:33:30;98156.47;;;-2.33;94.61
84232;BME280;74368;48.022;13.830;2024-01-30T02:35:56;98151.53;;;-2.38;94.57
84232;BME280;74368;48.022;13.830;2024-01-30T02:38:21;98154.81;;;-2.34;94.45
84232;BME280;74368;48.022;13.830;2024-01-30T02:40:46;98152.75;;;-2.42;94.74
84232;BME280;74368;48.022;13.830;2024-01-30T02:43:12;98159.03;;;-2.32;94.30
84232;BME280;74368;48.022;13.830;2024-01-30T02:45:37;98158.31;;;-2.34;94.17
84232;BME280;74368;48.022;13.830;2024-01-30T02:48:03;98161.03;;;-2.35;94.54
84232;BME280;74368;48.022;13.830;2024-01-30T02:50:28;98148.53;;;-2.33;94.75
84232;BME280;74368;48.022;13.830;2024-01-30T02:52:53;98160.94;;;-2.34;94.28
84232;BME280;74368;48.022;13.830;2024-01-30T02:55:18;98153.09;;;-2.35;94.45
84232;BME280;74368;48.022;13.830;2024-01-30T02:57:44;98152.66;;;-2.29;94.78
84232;BME280;74368;48.022;13.830;2024-01-30T03:00:10;98164.69;;;-2.25;94.97
84232;BME280;74368;48.022;13.830;2024-01-30T03:02:36;98152.06;;;-2.22;94.61
84232;BME280;74368;48.022;13.830;2024-01-30T03:05:01;98144.34;;;-2.25;94.45
84232;BME280;74368;48.022;13.830;2024-01-30T03:07:28;98148.81;;;-2.25;94.35
84232;BME280;74368;48.022;13.830;2024-01-30T03:09:53;98147.38;;;-2.18;94.77
84232;BME280;74368;48.022;13.830;2024-01-30T03:12:20;98146.41;;;-2.17;94.86
84232;BME280;74368;48.022;13.830;2024-01-30T03:14:46;98155.06;;;-2.15;94.48
84232;BME280;74368;48.022;13.830;2024-01-30T03:17:11;98139.78;;;-2.12;94.22
84232;BME280;74368;48.022;13.830;2024-01-30T03:19:36;98153.75;;;-2.10;93.94
84232;BME280;74368;48.022;13.830;2024-01-30T03:22:01;98140.84;;;-2.25;93.99
84232;BME280;74368;48.022;13.830;2024-01-30T03:24:27;98146.28;;;-2.27;93.76
84232;BME280;74368;48.022;13.830;2024-01-30T03:26:53;98153.88;;;-2.22;94.38
84232;BME280;74368;48.022;13.830;2024-01-30T03:29:18;98152.06;;;-2.22;94.05
84232;BME280;74368;48.022;13.830;2024-01-30T03:31:44;98146.03;;;-2.24;94.31
84232;BME280;74368;48.022;13.830;2024-01-30T03:34:09;98139.91;;;-2.24;93.82
84232;BME280;74368;48.022;13.830;2024-01-30T03:36:34;98142.44;;;-2.23;93.47
84232;BME280;74368;48.022;13.830;2024-01-30T03:39:00;98153.25;;;-2.26;93.83
84232;BME280;74368;48.022;13.830;2024-01-30T03:41:26;98143.63;;;-2.27;94.31
84232;BME280;74368;48.022;13.830;2024-01-30T03:43:51;98145.53;;;-2.29;94.33
84232;BME280;74368;48.022;13.830;2024-01-30T03:46:16;98146.38;;;-2.28;94.22
84232;BME280;74368;48.022;13.830;2024-01-30T03:48:42;98148.03;;;-2.38;93.29
84232;BME280;74368;48.022;13.830;2024-01-30T03:51:07;98143.81;;;-2.41;93.91
84232;BME280;74368;48.022;13.830;2024-01-30T03:53:33;98150.81;;;-2.40;94.06
84232;BME280;74368;48.022;13.830;2024-01-30T03:55:58;98144.81;;;-2.42;93.63
84232;BME280;74368;48.022;13.830;2024-01-30T03:58:24;98149.25;;;-2.42;93.34
84232;BME280;74368;48.022;13.830;2024-01-30T04:00:49;98154.19;;;-2.38;93.41
84232;BME280;74368;48.022;13.830;2024-01-30T04:03:15;98136.81;;;-2.53;93.33
84232;BME280;74368;48.022;13.830;2024-01-30T04:05:43;98159.97;;;-2.44;93.29
84232;BME280;74368;48.022;13.830;2024-01-30T04:08:09;98164.31;;;-2.32;93.81
84232;BME280;74368;48.022;13.830;2024-01-30T04:10:35;98162.47;;;-2.42;92.58
84232;BME280;74368;48.022;13.830;2024-01-30T04:13:00;98155.13;;;-2.50;93.42
84232;BME280;74368;48.022;13.830;2024-01-30T04:15:25;98151.53;;;-2.49;93.04
84232;BME280;74368;48.022;13.830;2024-01-30T04:17:51;98136.47;;;-2.59;92.79
84232;BME280;74368;48.022;13.830;2024-01-30T04:20:17;98159.09;;;-2.44;93.13
84232;BME280;74368;48.022;13.830;2024-01-30T04:22:43;98152.59;;;-2.51;92.82
84232;BME280;74368;48.022;13.830;2024-01-30T04:25:09;98167.84;;;-2.55;93.27
84232;BME280;74368;48.022;13.830;2024-01-30T04:27:34;98166.91;;;-2.54;93.27
84232;BME280;74368;48.022;13.830;2024-01-30T04:30:00;98166.78;;;-2.52;93.11
84232;BME280;74368;48.022;13.830;2024-01-30T04:32:25;98161.47;;;-2.52;93.80
84232;BME280;74368;48.022;13.830;2024-01-30T04:34:50;98152.09;;;-2.56;93.88
84232;BME280;74368;48.022;13.830;2024-01-30T04:37:15;98158.47;;;-2.48;93.76
84232;BME280;74368;48.022;13.830;2024-01-30T04:39:41;98158.47;;;-2.48;94.15
84232;BME280;74368;48.022;13.830;2024-01-30T04:42:06;98155.13;;;-2.50;93.43
84232;BME280;74368;48.022;13.830;2024-01-30T04:44:31;98157.66;;;-2.48;93.27
84232;BME280;74368;48.022;13.830;2024-01-30T04:46:56;98149.09;;;-2.52;93.39
84232;BME280;74368;48.022;13.830;2024-01-30T04:49:24;98145.63;;;-2.52;93.35
84232;BME280;74368;48.022;13.830;2024-01-30T04:51:49;98152.13;;;-2.45;92.16
84232;BME280;74368;48.022;13.830;2024-01-30T04:54:14;98149.25;;;-2.53;92.08
84232;BME280;74368;48.022;13.830;2024-01-30T04:56:40;98150.91;;;-2.52;92.22
84232;BME280;74368;48.022;13.830;2024-01-30T04:59:05;98154.88;;;-2.58;93.08
84232;BME280;74368;48.022;13.830;2024-01-30T05:01:30;98159.75;;;-2.64;91.87
84232;BME280;74368;48.022;13.830;2024-01-30T05:03:55;98157.47;;;-2.69;93.29
84232;BME280;74368;48.022;13.830;2024-01-30T05:06:25;98154.22;;;-2.73;93.31
84232;BME280;74368;48.022;13.830;2024-01-30T05:08:50;98163.34;;;-2.77;93.56
84232;BME280;74368;48.022;13.830;2024-01-30T05:11:16;98161.66;;;-2.78;93.40
84232;BME280;74368;48.022;13.830;2024-01-30T05:13:41;98155.91;;;-2.72;93.73
84232;BME280;74368;48.022;13.830;2024-01-30T05:16:06;98168.03;;;-2.69;92.61
84232;BME280;74368;48.022;13.830;2024-01-30T05:18:32;98165.75;;;-2.74;93.37
84232;BME280;74368;48.022;13.830;2024-01-30T05:20:57;98171.16;;;-2.75;93.31
84232;BME280;74368;48.022;13.830;2024-01-30T05:23:23;98169.97;;;-2.71;93.36
84232;BME280;74368;48.022;13.830;2024-01-30T05:25:48;98176.84;;;-2.69;92.86
84232;BME280;74368;48.022;13.830;2024-01-30T05:28:14;98173.47;;;-2.71;93.80
84232;BME280;74368;48.022;13.830;2024-01-30T05:30:39;98180.94;;;-2.64;93.39
84232;BME280;74368;48.022;13.830;2024-01-30T05:33:05;98181.84;;;-2.77;92.42
84232;BME280;74368;48.022;13.830;2024-01-30T05:35:30;98184.59;;;-2.78;92.66
84232;BME280;74368;48.022;13.830;2024-01-30T05:37:55;98176.97;;;-2.94;92.86
84232;BME280;74368;48.022;13.830;2024-01-30T05:40:21;98192.63;;;-2.80;93.01
84232;BME280;74368;48.022;13.830;2024-01-30T05:42:46;98191.81;;;-2.80;92.69
84232;BME280;74368;48.022;13.830;2024-01-30T05:45:11;98195.38;;;-2.92;92.87
84232;BME280;74368;48.022;13.830;2024-01-30T05:47:36;98184.66;;;-2.91;94.21
84232;BME280;74368;48.022;13.830;2024-01-30T05:50:02;98196.47;;;-2.84;93.93
84232;BME280;74368;48.022;13.830;2024-01-30T05:52:28;98188.59;;;-2.73;94.23
84232;BME280;74368;48.022;13.830;2024-01-30T05:54:53;98197.50;;;-2.74;94.02
84232;BME280;74368;48.022;13.830;2024-01-30T05:57:19;98199.63;;;-2.79;93.68
84232;BME280;74368;48.022;13.830;2024-01-30T05:59:44;98198.34;;;-2.73;94.23
84232;BME280;74368;48.022;13.830;2024-01-30T06:02:10;98179.66;;;-2.83;93.19
84232;BME280;74368;48.022;13.830;2024-01-30T06:04:36;98194.72;;;-2.72;94.11
84232;BME280;74368;48.022;13.830;2024-01-30T06:07:01;98196.69;;;-2.63;94.03
84232;BME280;74368;48.022;13.830;2024-01-30T06:09:27;98201.88;;;-2.61;93.68
84232;BME280;74368;48.022;13.830;2024-01-30T06:11:53;98203.78;;;-2.63;94.34
84232;BME280;74368;48.022;13.830;2024-01-30T06:14:18;98206.22;;;-2.60;94.14
84232;BME280;74368;48.022;13.830;2024-01-30T06:16:44;98204.50;;;-2.61;93.83
84232;BME280;74368;48.022;13.830;2024-01-30T06:19:09;98205.44;;;-2.62;93.56
84232;BME280;74368;48.022;13.830;2024-01-30T06:21:34;98199.22;;;-2.61;93.85
84232;BME280;74368;48.022;13.830;2024-01-30T06:24:02;98208.09;;;-2.62;94.39
84232;BME280;74368;48.022;13.830;2024-01-30T06:26:27;98209.06;;;-2.63;93.91
84232;BME280;74368;48.022;13.830;2024-01-30T06:28:52;98208.72;;;-2.59;93.37
84232;BME280;74368;48.022;13.830;2024-01-30T06:31:18;98202.81;;;-2.62;93.39
84232;BME280;74368;48.022;13.830;2024-01-30T06:33:43;98196.56;;;-2.61;92.40
84232;BME280;74368;48.022;13.830;2024-01-30T06:36:08;98195.34;;;-2.69;93.14
84232;BME280;74368;48.022;13.830;2024-01-30T06:38:33;98209.91;;;-2.63;93.46
84232;BME280;74368;48.022;13.830;2024-01-30T06:40:59;98207.03;;;-2.60;93.84
84232;BME280;74368;48.022;13.830;2024-01-30T06:43:24;98201.22;;;-2.65;93.10
84232;BME280;74368;48.022;13.830;2024-01-30T06:45:49;98207.16;;;-2.61;92.68
84232;BME280;74368;48.022;13.830;2024-01-30T06:48:16;98202.31;;;-2.68;93.45
84232;BME280;74368;48.022;13.830;2024-01-30T06:50:42;98198.94;;;-2.70;92.41
84232;BME280;74368;48.022;13.830;2024-01-30T06:53:07;98215.72;;;-2.58;92.47
84232;BME280;74368;48.022;13.830;2024-01-30T06:55:32;98210.00;;;-2.64;92.90
84232;BME280;74368;48.022;13.830;2024-01-30T06:57:57;98206.78;;;-2.68;92.71
84232;BME280;74368;48.022;13.830;2024-01-30T07:00:23;98215.81;;;-2.59;93.00
84232;BME280;74368;48.022;13.830;2024-01-30T07:02:48;98206.66;;;-2.67;93.45
84232;BME280;74368;48.022;13.830;2024-01-30T07:05:14;98209.16;;;-2.65;92.95
84232;BME280;74368;48.022;13.830;2024-01-30T07:07:39;98216.78;;;-2.60;92.94
84232;BME280;74368;48.022;13.830;2024-01-30T07:10:05;98208.34;;;-2.65;92.85
84232;BME280;74368;48.022;13.830;2024-01-30T07:12:31;98221.00;;;-2.58;93.14
84232;BME280;74368;48.022;13.830;2024-01-30T07:14:56;98217.44;;;-2.70;92.11
84232;BME280;74368;48.022;13.830;2024-01-30T07:17:21;98219.66;;;-2.63;93.43
84232;BME280;74368;48.022;13.830;2024-01-30T07:19:46;98208.34;;;-2.65;92.50
84232;BME280;74368;48.022;13.830;2024-01-30T07:22:12;98219.31;;;-2.59;92.41
84232;BME280;74368;48.022;13.830;2024-01-30T07:24:42;98214.00;;;-2.59;92.18
84232;BME280;74368;48.022;13.830;2024-01-30T07:27:09;98225.19;;;-2.55;92.81
84232;BME280;74368;48.022;13.830;2024-01-30T07:29:35;98221.59;;;-2.54;92.36
84232;BME280;74368;48.022;13.830;2024-01-30T07:32:00;98226.44;;;-2.48;92.39
84232;BME280;74368;48.022;13.830;2024-01-30T07:34:25;98224.53;;;-2.46;92.04
84232;BME280;74368;48.022;13.830;2024-01-30T07:36:50;98235.09;;;-2.46;92.13
84232;BME280;74368;48.022;13.830;2024-01-30T07:39:16;98218.59;;;-2.50;91.14
84232;BME280;74368;48.022;13.830;2024-01-30T07:41:41;98223.44;;;-2.44;91.12
84232;BME280;74368;48.022;13.830;2024-01-30T07:44:06;98229.88;;;-2.59;90.68
84232;BME280;74368;48.022;13.830;2024-01-30T07:46:32;98235.56;;;-2.52;91.70
84232;BME280;74368;48.022;13.830;2024-01-30T07:48:57;98226.44;;;-2.48;91.00
84232;BME280;74368;48.022;13.830;2024-01-30T07:51:23;98248.06;;;-2.54;90.83
84232;BME280;74368;48.022;13.830;2024-01-30T07:53:48;98233.94;;;-2.66;91.06
84232;BME280;74368;48.022;13.830;2024-01-30T07:56:14;98232.03;;;-2.64;92.05
84232;BME280;74368;48.022;13.830;2024-01-30T07:58:40;98241.03;;;-2.67;91.09
84232;BME280;74368;48.022;13.830;2024-01-30T08:01:06;98239.41;;;-2.56;91.57
84232;BME280;74368;48.022;13.830;2024-01-30T08:03:31;98244.47;;;-2.53;91.19
84232;BME280;74368;48.022;13.830;2024-01-30T08:05:56;98249.28;;;-2.47;90.21
84232;BME280;74368;48.022;13.830;2024-01-30T08:08:21;98243.84;;;-2.57;90.26
84232;BME280;74368;48.022;13.830;2024-01-30T08:10:47;98260.50;;;-2.44;91.64
84232;BME280;74368;48.022;13.830;2024-01-30T08:13:13;98259.94;;;-2.36;91.38
84232;BME280;74368;48.022;13.830;2024-01-30T08:15:38;98246.56;;;-2.35;91.69
84232;BME280;74368;48.022;13.830;2024-01-30T08:18:03;98263.31;;;-2.23;91.61
84232;BME280;74368;48.022;13.830;2024-01-30T08:20:30;98260.47;;;-2.09;92.01
84232;BME280;74368;48.022;13.830;2024-01-30T08:22:56;98258.22;;;-2.03;91.25
84232;BME280;74368;48.022;13.830;2024-01-30T08:25:21;98248.13;;;-1.97;91.80
84232;BME280;74368;48.022;13.830;2024-01-30T08:27:46;98264.75;;;-1.84;90.80
84232;BME280;74368;48.022;13.830;2024-01-30T08:30:12;98252.09;;;-1.92;89.19
84232;BME280;74368;48.022;13.830;2024-01-30T08:32:37;98251.22;;;-2.15;88.73
84232;BME280;74368;48.022;13.830;2024-01-30T08:35:03;98252.19;;;-2.05;89.73
84232;BME280;74368;48.022;13.830;2024-01-30T08:37:29;98256.66;;;-2.05;89.84
84232;BME280;74368;48.022;13.830;2024-01-30T08:39:54;98257.94;;;-2.11;89.70
84232;BME280;74368;48.022;13.830;2024-01-30T08:42:20;98258.09;;;-2.01;89.46
84232;BME280;74368;48.022;13.830;2024-01-30T08:44:48;98262.03;;;-2.07;89.78
84232;BME280;74368;48.022;13.830;2024-01-30T08:47:14;98253.66;;;-2.01;90.33
84232;BME280;74368;48.022;13.830;2024-01-30T08:49:41;98260.16;;;-1.82;89.74
84232;BME280;74368;48.022;13.830;2024-01-30T08:52:08;98261.50;;;-1.88;89.39
84232;BME280;74368;48.022;13.830;2024-01-30T08:54:33;98263.53;;;-1.91;88.94
84232;BME280;74368;48.022;13.830;2024-01-30T08:57:00;98264.75;;;-1.84;89.45
84232;BME280;74368;48.022;13.830;2024-01-30T08:59:25;98257.00;;;-1.98;89.41
84232;BME280;74368;48.022;13.830;2024-01-30T09:01:50;98250.88;;;-1.99;89.91
84232;BME280;74368;48.022;13.830;2024-01-30T09:04:18;98251.41;;;-1.83;90.27
84232;BME280;74368;48.022;13.830;2024-01-30T09:06:43;98251.66;;;-1.64;90.21
84232;BME280;74368;48.022;13.830;2024-01-30T09:09:09;98262.50;;;-1.45;88.80
84232;BME280;74368;48.022;13.830;2024-01-30T09:11:35;98264.19;;;-1.55;88.82
84232;BME280;74368;48.022;13.830;2024-01-30T09:14:00;98266.25;;;-1.58;87.97
84232;BME280;74368;48.022;13.830;2024-01-30T09:16:25;98260.94;;;-1.58;88.09
84232;BME280;74368;48.022;13.830;2024-01-30T09:18:51;98265.13;;;-1.56;88.42
84232;BME280;74368;48.022;13.830;2024-01-30T09:21:16;98252.38;;;-1.62;87.65
84232;BME280;74368;48.022;13.830;2024-01-30T09:23:41;98276.47;;;-1.54;88.30
84232;BME280;74368;48.022;13.830;2024-01-30T09:26:06;98268.38;;;-1.41;88.87
84232;BME280;74368;48.022;13.830;2024-01-30T09:28:32;98269.34;;;-1.31;87.11
84232;BME280;74368;48.022;13.830;2024-01-30T09:30:57;98255.28;;;-1.43;86.87
84232;BME280;74368;48.022;13.830;2024-01-30T09:33:22;98270.22;;;-1.30;87.59
84232;BME280;74368;48.022;13.830;2024-01-30T09:35:48;98277.22;;;-1.29;86.76
84232;BME280;74368;48.022;13.830;2024-01-30T09:38:13;98273.22;;;-1.35;87.81
84232;BME280;74368;48.022;13.830;2024-01-30T09:40:38;98280.22;;;-1.34;87.72
84232;BME280;74368;48.022;13.830;2024-01-30T09:43:03;98275.16;;;-1.37;87.85
84232;BME280;74368;48.022;13.830;2024-01-30T09:45:29;98272.63;;;-1.27;88.61
84232;BME280;74368;48.022;13.830;2024-01-30T09:47:55;98273.56;;;-1.28;87.66
84232;BME280;74368;48.022;13.830;2024-01-30T09:50:20;98278.66;;;-1.25;87.77
84232;BME280;74368;48.022;13.830;2024-01-30T09:52:47;98271.53;;;-1.14;88.63
84232;BME280;74368;48.022;13.830;2024-01-30T09:55:13;98273.91;;;-1.00;88.28
84232;BME280;74368;48.022;13.830;2024-01-30T09:57:39;98265.00;;;-0.99;87.26
84232;BME280;74368;48.022;13.830;2024-01-30T10:00:05;98273.94;;;-1.11;84.77
84232;BME280;74368;48.022;13.830;2024-01-30T10:02:34;98274.19;;;-1.03;86.49
84232;BME280;74368;48.022;13.830;2024-01-30T10:05:00;98275.94;;;-0.92;86.08
84232;BME280;74368;48.022;13.830;2024-01-30T10:07:26;98270.53;;;-1.02;86.54
84232;BME280;74368;48.022;13.830;2024-01-30T10:09:52;98264.53;;;-1.04;84.99
84232;BME280;74368;48.022;13.830;2024-01-30T10:12:18;98265.25;;;-1.02;85.67
84232;BME280;74368;48.022;13.830;2024-01-30T10:14:43;98271.88;;;-0.96;85.94
84232;BME280;74368;48.022;13.830;2024-01-30T10:17:09;98269.72;;;-1.02;86.60
84232;BME280;74368;48.022;13.830;2024-01-30T10:19:35;98268.25;;;-1.06;87.18
84232;BME280;74368;48.022;13.830;2024-01-30T10:22:01;98265.94;;;-1.00;86.95
84232;BME280;74368;48.022;13.830;2024-01-30T10:24:27;98258.84;;;-0.99;87.22
84232;BME280;74368;48.022;13.830;2024-01-30T10:26:55;98262.56;;;-0.80;86.89
84232;BME280;74368;48.022;13.830;2024-01-30T10:29:20;98256.78;;;-0.85;87.11
84232;BME280;74368;48.022;13.830;2024-01-30T10:31:45;98232.56;;;-0.91;86.73
84232;BME280;74368;48.022;13.830;2024-01-30T10:34:12;98242.03;;;-0.78;85.75
84232;BME280;74368;48.022;13.830;2024-01-30T10:36:40;98243.16;;;-0.91;86.34
84232;BME280;74368;48.022;13.830;2024-01-30T10:39:08;98237.72;;;-0.90;86.55
84232;BME280;74368;48.022;13.830;2024-01-30T10:41:42;98244.34;;;-0.84;86.83
84232;BME280;74368;48.022;13.830;2024-01-30T10:44:09;98231.69;;;-0.81;86.18
84232;BME280;74368;48.022;13.830;2024-01-30T10:46:35;98243.34;;;-0.72;86.30
84232;BME280;74368;48.022;13.830;2024-01-30T10:49:03;98232.53;;;-0.80;86.50
84232;BME280;74368;48.022;13.830;2024-01-30T10:51:30;98241.19;;;-0.67;87.20
84232;BME280;74368;48.022;13.830;2024-01-30T10:53:56;98237.47;;;-0.76;86.72
84232;BME280;74368;48.022;13.830;2024-01-30T10:56:22;98229.06;;;-0.81;87.23
84232;BME280;74368;48.022;13.830;2024-01-30T10:58:52;98239.38;;;-0.67;87.00
84232;BME280;74368;48.022;13.830;2024-01-30T11:01:21;98222.13;;;-0.72;86.25
84232;BME280;74368;48.022;13.830;2024-01-30T11:03:50;98232.38;;;-0.68;87.92
84232;BME280;74368;48.022;13.830;2024-01-30T11:06:16;98228.06;;;-0.80;86.47
84232;BME280;74368;48.022;13.830;2024-01-30T11:08:44;98221.66;;;-0.66;87.40
84232;BME280;74368;48.022;13.830;2024-01-30T11:11:10;98218.38;;;-0.70;86.84
84232;BME280;74368;48.022;13.830;2024-01-30T11:13:35;98216.13;;;-0.74;87.17
84232;BME280;74368;48.022;13.830;2024-01-30T11:16:02;98219.47;;;-0.72;86.86
84232;BME280;74368;48.022;13.830;2024-01-30T11:18:35;98219.09;;;-0.68;86.42
84232;BME280;74368;48.022;13.830;2024-01-30T11:21:00;98213.94;;;-0.69;86.90
84232;BME280;74368;48.022;13.830;2024-01-30T11:23:27;98207.41;;;-0.65;87.44
84232;BME280;74368;48.022;13.830;2024-01-30T11:25:53;98215.56;;;-0.57;87.34
84232;BME280;74368;48.022;13.830;2024-01-30T11:28:21;98221.25;;;-0.61;86.14
84232;BME280;74368;48.022;13.830;2024-01-30T11:30:47;98213.69;;;-0.66;86.42
84232;BME280;74368;48.022;13.830;2024-01-30T11:33:14;98223.66;;;-0.58;86.69
84232;BME280;74368;48.022;13.830;2024-01-30T11:35:41;98220.25;;;-0.49;86.60
84232;BME280;74368;48.022;13.830;2024-01-30T11:38:11;98210.03;;;-0.65;85.73
84232;BME280;74368;48.022;13.830;2024-01-30T11:40:38;98206.91;;;-0.59;86.41
84232;BME280;74368;48.022;13.830;2024-01-30T11:43:06;98197.63;;;-0.64;86.46
84232;BME280;74368;48.022;13.830;2024-01-30T11:45:32;98214.56;;;-0.45;86.09
84232;BME280;74368;48.022;13.830;2024-01-30T11:47:57;98206.19;;;-0.61;86.16
84232;BME280;74368;48.022;13.830;2024-01-30T11:50:25;98208.00;;;-0.61;85.90
84232;BME280;74368;48.022;13.830;2024-01-30T11:52:50;98205.97;;;-0.69;87.18
84232;BME280;74368;48.022;13.830;2024-01-30T11:55:16;98194.97;;;-0.64;86.82
84232;BME280;74368;48.022;13.830;2024-01-30T11:57:42;98203.16;;;-0.56;86.93
84232;BME280;74368;48.022;13.830;2024-01-30T12:00:16;98195.28;;;-0.58;87.39
84232;BME280;74368;48.022;13.830;2024-01-30T12:02:43;98194.22;;;-0.55;86.40
84232;BME280;74368;48.022;13.830;2024-01-30T12:05:09;98202.94;;;-0.64;85.87
84232;BME280;74368;48.022;13.830;2024-01-30T12:07:34;98187.34;;;-0.58;86.12
84232;BME280;74368;48.022;13.830;2024-01-30T12:10:00;98178.25;;;-0.76;86.43
84232;BME280;74368;48.022;13.830;2024-01-30T12:12:27;98174.38;;;-0.72;86.52
84232;BME280;74368;48.022;13.830;2024-01-30T12:14:53;98188.56;;;-0.62;87.65
84232;BME280;74368;48.022;13.830;2024-01-30T12:17:26;98180.84;;;-0.65;86.06
84232;BME280;74368;48.022;13.830;2024-01-30T12:19:51;98158.59;;;-0.74;86.04
84232;BME280;74368;48.022;13.830;2024-01-30T12:22:27;98169.22;;;-0.53;86.04
84232;BME280;74368;48.022;13.830;2024-01-30T12:24:53;98177.53;;;-0.46;85.60
84232;BME280;74368;48.022;13.830;2024-01-30T12:27:18;98159.59;;;-0.54;86.53
84232;BME280;74368;48.022;13.830;2024-01-30T12:29:43;98165.66;;;-0.63;86.20
84232;BME280;74368;48.022;13.830;2024-01-30T12:32:15;98177.19;;;-0.53;85.53
84232;BME280;74368;48.022;13.830;2024-01-30T12:34:41;98181.00;;;-0.67;86.56
84232;BME280;74368;48.022;13.830;2024-01-30T12:37:07;98175.63;;;-0.55;86.05
84232;BME280;74368;48.022;13.830;2024-01-30T12:39:34;98175.06;;;-0.59;85.28
84232;BME280;74368;48.022;13.830;2024-01-30T12:42:00;98155.38;;;-0.56;86.41